createdAt,value
2019-03-20T00:00:05.537Z,7.53
2019-03-20T00:02:34.307Z,7.93
2019-03-20T00:05:03.201Z,8.17
2019-03-20T00:07:32.194Z,7.60
2019-03-20T00:10:00.981Z,7.63
2019-03-20T00:15:12.164Z,8.03
2019-03-20T00:17:41.205Z,8.03
2019-03-20T00:20:10.932Z,8.80
2019-03-20T00:22:39.798Z,8.77
2019-03-20T00:25:09.047Z,8.77
2019-03-20T00:27:37.996Z,8.73
2019-03-20T00:30:07.473Z,9.80
2019-03-20T00:32:36.370Z,9.40
2019-03-20T00:35:06.116Z,10.17
2019-03-20T00:37:35.061Z,10.83
2019-03-20T00:40:04.658Z,11.43
2019-03-20T00:42:35.446Z,11.53
2019-03-20T00:45:04.622Z,12.57
2019-03-20T00:47:33.690Z,12.40
2019-03-20T00:50:02.675Z,12.20
2019-03-20T00:52:31.524Z,12.80
2019-03-20T00:55:00.406Z,13.33
2019-03-20T00:57:29.346Z,13.03
2019-03-20T00:59:58.298Z,13.37
2019-03-20T01:02:27.170Z,13.43
2019-03-20T01:04:56.032Z,12.67
2019-03-20T01:07:24.997Z,14.10
2019-03-20T01:09:54.008Z,13.43
2019-03-20T01:12:22.890Z,12.43
2019-03-20T01:14:51.724Z,13.53
2019-03-20T01:17:20.775Z,13.83
2019-03-20T01:19:51.181Z,12.87
2019-03-20T01:22:20.715Z,13.17
2019-03-20T01:24:49.596Z,12.80
2019-03-20T01:27:18.478Z,13.27
2019-03-20T01:29:47.533Z,12.73
2019-03-20T01:32:16.485Z,13.37
2019-03-20T01:34:45.371Z,13.07
2019-03-20T01:37:14.278Z,12.43
2019-03-20T01:39:44.423Z,12.63
2019-03-20T01:42:13.280Z,13.13
2019-03-20T01:44:42.098Z,13.23
2019-03-20T01:47:10.998Z,13.70
2019-03-20T01:49:39.844Z,13.67
2019-03-20T01:52:08.787Z,14.23
2019-03-20T01:54:37.612Z,13.70
2019-03-20T01:57:06.492Z,13.60
2019-03-20T01:59:35.451Z,14.20
2019-03-20T02:02:05.944Z,15.13
2019-03-20T02:04:34.874Z,15.63
2019-03-20T02:07:03.915Z,14.33
2019-03-20T02:09:32.868Z,16.07
2019-03-20T02:12:01.702Z,14.93
2019-03-20T02:14:30.683Z,15.10
2019-03-20T02:16:59.575Z,14.73
2019-03-20T02:19:30.459Z,14.87
2019-03-20T02:21:59.298Z,14.93
2019-03-20T02:24:28.263Z,14.77
2019-03-20T02:29:36.018Z,15.80
2019-03-20T02:32:05.294Z,15.27
2019-03-20T02:34:34.177Z,16.97
2019-03-20T02:37:02.983Z,16.17
2019-03-20T02:39:32.097Z,17.23
2019-03-20T02:42:00.964Z,16.70
2019-03-20T02:44:29.857Z,17.30
2019-03-20T02:46:58.793Z,17.23
2019-03-20T02:49:27.739Z,16.80
2019-03-20T02:51:56.639Z,17.17
2019-03-20T02:54:25.535Z,16.87
2019-03-20T02:56:54.377Z,16.83
2019-03-20T02:59:23.299Z,16.73
2019-03-20T03:01:52.258Z,15.67
2019-03-20T03:04:21.144Z,17.10
2019-03-20T03:06:50.101Z,16.03
2019-03-20T03:09:19.254Z,16.73
2019-03-20T03:11:48.225Z,15.23
2019-03-20T03:14:17.157Z,16.77
2019-03-20T03:16:46.146Z,16.80
2019-03-20T03:19:15.147Z,14.90
2019-03-20T03:21:44.000Z,15.90
2019-03-20T03:24:12.824Z,14.83
2019-03-20T03:26:41.709Z,14.70
2019-03-20T03:29:10.593Z,13.90
2019-03-20T03:31:39.714Z,14.97
2019-03-20T03:34:08.898Z,13.80
2019-03-20T03:36:37.774Z,13.53
2019-03-20T03:39:08.114Z,14.97
2019-03-20T03:41:37.545Z,14.67
2019-03-20T03:44:06.502Z,14.03
2019-03-20T03:46:35.323Z,13.10
2019-03-20T03:49:04.355Z,13.00
2019-03-20T03:51:33.164Z,14.03
2019-03-20T03:54:02.073Z,12.63
2019-03-20T03:56:30.894Z,13.53
2019-03-20T03:58:59.967Z,13.03
2019-03-20T04:01:28.971Z,13.15
2019-03-20T04:03:57.873Z,12.87
2019-03-20T04:06:35.570Z,13.77
2019-03-20T04:08:57.574Z,13.67
2019-03-20T04:11:26.527Z,13.20
2019-03-20T04:13:55.427Z,13.53
2019-03-20T04:16:24.255Z,13.43
2019-03-20T04:18:53.174Z,13.00
2019-03-20T04:21:22.078Z,13.27
2019-03-20T04:23:51.005Z,13.77
2019-03-20T04:26:19.856Z,13.10
2019-03-20T04:28:48.803Z,13.13
2019-03-20T04:31:17.738Z,14.23
2019-03-20T04:33:46.751Z,14.20
2019-03-20T04:36:15.645Z,13.67
2019-03-20T04:38:44.705Z,13.03
2019-03-20T04:41:13.535Z,13.67
2019-03-20T04:43:42.363Z,13.87
2019-03-20T04:46:11.256Z,13.07
2019-03-20T04:48:40.260Z,14.40
2019-03-20T04:51:09.119Z,13.90
2019-03-20T04:53:37.986Z,13.80
2019-03-20T04:56:07.197Z,14.40
2019-03-20T04:58:37.245Z,14.37
2019-03-20T05:01:06.175Z,13.77
2019-03-20T05:03:35.011Z,13.97
2019-03-20T05:06:03.955Z,13.87
2019-03-20T05:08:32.934Z,14.43
2019-03-20T05:11:01.733Z,14.93
2019-03-20T05:13:30.631Z,14.77
2019-03-20T05:15:59.563Z,14.93
2019-03-20T05:18:28.540Z,14.37
2019-03-20T05:20:57.480Z,14.00
2019-03-20T05:23:26.367Z,14.67
2019-03-20T05:25:55.182Z,14.77
2019-03-20T05:28:24.152Z,14.27
2019-03-20T05:30:53.122Z,15.07
2019-03-20T05:33:21.971Z,15.13
2019-03-20T05:35:50.850Z,14.87
2019-03-20T05:38:19.866Z,15.80
2019-03-20T05:40:48.742Z,15.27
2019-03-20T05:43:17.567Z,15.73
2019-03-20T05:45:46.510Z,14.77
2019-03-20T05:48:16.536Z,15.83
2019-03-20T05:50:45.436Z,14.60
2019-03-20T05:53:14.296Z,15.37
2019-03-20T05:55:43.210Z,15.53
2019-03-20T05:58:12.174Z,16.73
2019-03-20T06:00:41.069Z,16.30
2019-03-20T06:03:09.907Z,15.67
2019-03-20T06:05:38.874Z,17.03
2019-03-20T06:08:08.999Z,16.70
2019-03-20T06:10:37.862Z,15.73
2019-03-20T06:13:06.738Z,16.30
2019-03-20T06:15:35.601Z,17.80
2019-03-20T06:18:04.702Z,16.93
2019-03-20T06:23:12.336Z,16.77
2019-03-20T06:25:41.186Z,17.00
2019-03-20T06:28:10.163Z,17.20
2019-03-20T06:30:39.028Z,18.17
2019-03-20T06:33:07.829Z,17.73
2019-03-20T06:35:36.732Z,18.20
2019-03-20T06:38:05.823Z,17.20
2019-03-20T06:40:34.685Z,18.20
2019-03-20T06:43:03.667Z,17.60
2019-03-20T06:45:32.512Z,16.83
2019-03-20T06:48:01.476Z,18.27
2019-03-20T06:50:30.284Z,17.70
2019-03-20T06:55:35.021Z,19.43
2019-03-20T06:58:04.229Z,17.57
2019-03-20T07:00:51.835Z,19.10
2019-03-20T07:04:06.993Z,17.63
2019-03-20T07:06:45.829Z,20.23
2019-03-20T07:09:43.326Z,19.83
2019-03-20T07:12:12.155Z,19.17
2019-03-20T07:14:40.958Z,20.20
2019-03-20T07:17:10.486Z,19.47
2019-03-20T07:19:39.327Z,19.73
2019-03-20T07:22:08.146Z,19.10
2019-03-20T07:24:36.931Z,20.37
2019-03-20T07:27:05.795Z,20.47
2019-03-20T07:29:34.686Z,20.83
2019-03-20T07:32:03.588Z,20.73
2019-03-20T07:34:32.443Z,21.13
2019-03-20T07:37:01.728Z,21.37
2019-03-20T07:39:30.652Z,21.17
2019-03-20T07:41:59.462Z,20.43
2019-03-20T07:44:28.537Z,19.10
2019-03-20T07:46:57.356Z,20.03
2019-03-20T07:49:26.225Z,20.43
2019-03-20T07:51:55.005Z,20.77
2019-03-20T07:54:23.822Z,21.00
2019-03-20T07:56:52.677Z,20.37
2019-03-20T08:02:03.796Z,20.67
2019-03-20T08:04:32.671Z,20.17
2019-03-20T08:07:01.531Z,20.47
2019-03-20T08:09:30.512Z,21.50
2019-03-20T08:11:59.541Z,21.93
2019-03-20T08:14:28.351Z,22.13
2019-03-20T08:16:57.214Z,22.13
2019-03-20T08:19:26.015Z,22.13
2019-03-20T08:21:54.786Z,21.93
2019-03-20T08:24:23.580Z,22.67
2019-03-20T08:26:52.450Z,21.83
2019-03-20T08:29:21.341Z,22.03
2019-03-20T08:31:50.133Z,21.93
2019-03-20T08:34:18.913Z,22.97
2019-03-20T08:36:47.717Z,23.00
2019-03-20T08:39:16.775Z,21.43
2019-03-20T08:41:45.634Z,22.27
2019-03-20T08:44:14.385Z,21.97
2019-03-20T08:46:43.295Z,22.40
2019-03-20T08:49:13.274Z,22.47
2019-03-20T08:51:42.155Z,22.37
2019-03-20T08:54:11.006Z,22.70
2019-03-20T08:56:39.760Z,22.07
2019-03-20T08:59:08.644Z,23.13
2019-03-20T09:01:37.637Z,23.10
2019-03-20T09:04:06.417Z,23.90
2019-03-20T09:06:35.231Z,23.63
2019-03-20T09:09:07.392Z,24.33
2019-03-20T09:11:36.310Z,23.53
2019-03-20T09:14:05.232Z,23.77
2019-03-20T09:16:34.018Z,24.33
2019-03-20T09:19:03.975Z,25.90
2019-03-20T09:21:32.851Z,25.33
2019-03-20T09:24:01.645Z,25.33
2019-03-20T09:26:30.442Z,23.60
2019-03-20T09:28:59.413Z,25.10
2019-03-20T09:31:28.279Z,25.30
2019-03-20T09:33:57.175Z,26.03
2019-03-20T09:36:26.085Z,26.73
2019-03-20T09:38:54.990Z,26.97
2019-03-20T09:41:23.789Z,25.53
2019-03-20T09:43:52.593Z,27.53
2019-03-20T09:46:21.371Z,27.27
2019-03-20T09:48:50.374Z,25.63
2019-03-20T09:51:19.223Z,26.10
2019-03-20T09:53:48.039Z,26.37
2019-03-20T09:56:16.897Z,26.30
2019-03-20T09:58:45.925Z,26.87
2019-03-20T10:01:14.781Z,25.30
2019-03-20T10:03:43.580Z,25.00
2019-03-20T10:06:12.500Z,28.00
2019-03-20T10:08:41.467Z,25.87
2019-03-20T10:11:10.260Z,26.27
2019-03-20T10:13:39.033Z,26.60
2019-03-20T10:16:07.916Z,26.70
2019-03-20T10:18:36.822Z,26.37
2019-03-20T10:21:05.719Z,27.47
2019-03-20T10:23:34.532Z,26.73
2019-03-20T10:26:03.378Z,26.20
2019-03-20T10:28:32.373Z,26.07
2019-03-20T10:31:01.177Z,26.03
2019-03-20T10:33:31.719Z,27.63
2019-03-20T10:36:00.567Z,26.60
2019-03-20T10:38:29.576Z,25.30
2019-03-20T10:40:58.365Z,25.63
2019-03-20T10:43:27.181Z,24.87
2019-03-20T10:45:56.053Z,24.17
2019-03-20T10:48:26.973Z,25.27
2019-03-20T10:50:55.774Z,25.10
2019-03-20T10:53:24.527Z,24.77
2019-03-20T10:55:53.467Z,23.73
2019-03-20T10:58:22.328Z,24.37
2019-03-20T11:00:51.190Z,24.50
2019-03-20T11:03:19.987Z,22.40
2019-03-20T11:05:49.115Z,23.40
2019-03-20T11:08:18.439Z,23.67
2019-03-20T11:10:47.301Z,23.43
2019-03-20T11:13:16.192Z,24.80
2019-03-20T11:15:45.003Z,24.10
2019-03-20T11:18:13.886Z,23.47
2019-03-20T11:20:42.653Z,22.87
2019-03-20T11:23:11.535Z,23.37
2019-03-20T11:25:40.343Z,22.30
2019-03-20T11:28:09.215Z,21.67
2019-03-20T11:30:38.347Z,21.57
2019-03-20T11:33:07.175Z,21.57
2019-03-20T11:35:36.090Z,21.63
2019-03-20T11:38:05.131Z,21.80
2019-03-20T11:40:34.027Z,21.93
2019-03-20T11:43:02.971Z,21.97
2019-03-20T11:45:31.781Z,20.93
2019-03-20T11:48:01.037Z,20.97
2019-03-20T11:50:32.325Z,21.17
2019-03-20T11:53:01.135Z,20.47
2019-03-20T11:55:29.948Z,20.23
2019-03-20T11:57:58.799Z,20.17
2019-03-20T12:00:28.117Z,19.03
2019-03-20T12:02:56.880Z,18.87
2019-03-20T12:05:25.778Z,17.48
2019-03-20T12:07:54.855Z,19.20
2019-03-20T12:10:23.762Z,16.37
2019-03-20T12:12:52.692Z,17.07
2019-03-20T12:15:21.637Z,16.07
2019-03-20T12:17:50.551Z,16.03
2019-03-20T12:20:19.746Z,14.68
2019-03-20T12:22:48.755Z,14.80
2019-03-20T12:25:19.751Z,14.23
2019-03-20T12:27:48.814Z,14.63
2019-03-20T12:30:21.394Z,14.20
2019-03-20T12:32:50.255Z,14.93
2019-03-20T12:35:19.156Z,14.43
2019-03-20T12:37:48.227Z,13.60
2019-03-20T12:40:22.748Z,13.10
2019-03-20T12:42:51.927Z,13.83
2019-03-20T12:45:22.555Z,13.37
2019-03-20T12:47:51.663Z,12.27
2019-03-20T12:50:20.444Z,12.87
2019-03-20T12:52:49.380Z,12.47
2019-03-20T12:55:18.391Z,12.63
2019-03-20T12:57:47.501Z,11.77
2019-03-20T13:00:18.249Z,12.40
2019-03-20T13:02:47.259Z,12.10
2019-03-20T13:05:16.378Z,11.95
2019-03-20T13:07:45.548Z,12.23
2019-03-20T13:10:16.369Z,11.83
2019-03-20T13:15:19.088Z,12.77
2019-03-20T13:17:48.187Z,12.20
2019-03-20T13:20:17.388Z,12.25
2019-03-20T13:22:48.403Z,10.93
2019-03-20T13:25:17.340Z,10.53
2019-03-20T13:27:46.361Z,11.83
2019-03-20T13:30:23.724Z,11.65
2019-03-20T13:32:52.689Z,12.10
2019-03-20T13:35:21.641Z,11.08
2019-03-20T13:37:50.687Z,11.30
2019-03-20T13:40:19.562Z,10.33
2019-03-20T13:42:48.521Z,11.47
2019-03-20T13:45:17.747Z,11.47
2019-03-20T13:47:46.657Z,11.33
2019-03-20T13:50:15.587Z,12.13
2019-03-20T13:52:44.601Z,12.13
2019-03-20T13:55:14.328Z,12.17
2019-03-20T13:57:43.281Z,11.40
2019-03-20T14:00:17.544Z,12.00
2019-03-20T14:02:46.492Z,10.73
2019-03-20T14:05:15.608Z,12.17
2019-03-20T14:07:44.666Z,12.13
2019-03-20T14:10:24.565Z,11.13
2019-03-20T14:12:46.449Z,11.70
2019-03-20T14:15:15.967Z,11.22
2019-03-20T14:17:45.057Z,11.37
2019-03-20T14:20:16.363Z,11.17
2019-03-20T14:22:45.192Z,11.87
2019-03-20T14:25:14.372Z,11.87
2019-03-20T14:27:45.329Z,11.87
2019-03-20T14:30:19.301Z,11.97
2019-03-20T14:32:48.291Z,11.67
2019-03-20T14:35:17.308Z,12.50
2019-03-20T14:37:46.613Z,12.23
2019-03-20T14:40:16.186Z,11.83
2019-03-20T14:42:45.087Z,12.63
2019-03-20T14:45:14.582Z,11.90
2019-03-20T14:50:40.176Z,11.43
2019-03-20T14:53:09.075Z,12.23
2019-03-20T14:55:37.932Z,11.63
2019-03-20T14:58:07.009Z,12.30
2019-03-20T15:00:35.941Z,12.33
2019-03-20T15:03:04.918Z,12.20
2019-03-20T15:05:33.758Z,12.87
2019-03-20T15:08:02.747Z,12.50
2019-03-20T15:10:31.592Z,13.10
2019-03-20T15:13:00.452Z,13.03
2019-03-20T15:15:38.152Z,13.18
2019-03-20T15:18:07.041Z,12.70
2019-03-20T15:20:36.078Z,13.77
2019-03-20T15:23:05.015Z,12.53
2019-03-20T15:25:34.018Z,13.77
2019-03-20T15:28:03.364Z,13.17
2019-03-20T15:30:32.453Z,12.20
2019-03-20T15:33:01.421Z,12.63
2019-03-20T15:35:30.374Z,12.27
2019-03-20T15:37:59.193Z,13.03
2019-03-20T15:40:28.082Z,13.05
2019-03-20T15:42:57.067Z,12.10
2019-03-20T15:45:25.869Z,12.17
2019-03-20T15:47:54.869Z,12.37
2019-03-20T15:50:23.909Z,11.47
2019-03-20T15:52:52.833Z,12.80
2019-03-20T15:55:24.569Z,11.87
2019-03-20T15:57:53.465Z,12.07
2019-03-20T16:00:22.464Z,12.43
2019-03-20T16:02:52.577Z,12.20
2019-03-20T16:05:21.386Z,12.00
2019-03-20T16:07:50.491Z,12.27
2019-03-20T16:10:20.490Z,12.37
2019-03-20T16:12:49.516Z,12.17
2019-03-20T16:15:19.445Z,11.53
2019-03-20T16:17:48.692Z,12.17
2019-03-20T16:20:17.821Z,11.47
2019-03-20T16:22:46.829Z,10.70
2019-03-20T16:25:15.877Z,11.33
2019-03-20T16:27:45.093Z,10.60
2019-03-20T16:30:16.666Z,10.67
2019-03-20T16:32:45.692Z,10.53
2019-03-20T16:35:14.525Z,10.87
2019-03-20T16:37:44.560Z,11.63
2019-03-20T16:40:18.418Z,10.83
2019-03-20T16:42:47.455Z,8.10
2019-03-20T16:45:21.482Z,7.77
2019-03-20T16:47:50.578Z,6.07
2019-03-20T16:50:19.511Z,6.00
2019-03-20T16:52:48.613Z,5.77
2019-03-20T16:55:17.802Z,5.97
2019-03-20T16:57:46.903Z,5.17
2019-03-20T17:00:23.506Z,5.33
2019-03-20T17:02:52.587Z,5.40
2019-03-20T17:05:22.881Z,5.17
2019-03-20T17:07:52.006Z,5.57
2019-03-20T17:10:28.816Z,5.13
2019-03-20T17:12:57.787Z,5.00
2019-03-20T17:15:27.714Z,5.33
2019-03-20T17:17:56.600Z,4.87
2019-03-20T17:20:25.862Z,5.00
2019-03-20T17:22:55.058Z,4.53
2019-03-20T17:25:24.128Z,5.37
2019-03-20T17:27:53.165Z,5.80
2019-03-20T17:30:24.274Z,5.05
2019-03-20T17:32:53.195Z,5.33
2019-03-20T17:35:22.268Z,5.20
2019-03-20T17:37:51.348Z,4.80
2019-03-20T17:40:20.402Z,4.97
2019-03-20T17:42:49.274Z,5.50
2019-03-20T17:45:18.979Z,5.20
2019-03-20T17:47:48.489Z,5.67
2019-03-20T17:50:22.125Z,5.05
2019-03-20T17:52:51.334Z,5.10
2019-03-20T17:55:20.339Z,5.03
2019-03-20T17:57:49.390Z,5.83
2019-03-20T18:00:22.282Z,4.47
2019-03-20T18:05:27.209Z,4.87
2019-03-20T18:07:56.249Z,5.90
2019-03-20T18:10:25.243Z,5.23
2019-03-20T18:12:54.172Z,5.00
2019-03-20T18:15:23.343Z,5.40
2019-03-20T18:17:52.302Z,4.90
2019-03-20T18:20:21.228Z,5.73
2019-03-20T18:22:50.088Z,5.30
2019-03-20T18:25:19.029Z,5.37
2019-03-20T18:27:47.820Z,5.10
2019-03-20T18:30:19.039Z,5.33
2019-03-20T18:32:48.042Z,6.00
2019-03-20T18:35:16.979Z,5.80
2019-03-20T18:37:46.123Z,6.43
2019-03-20T18:40:16.336Z,6.17
2019-03-20T18:42:45.300Z,6.53
2019-03-20T18:45:15.043Z,7.13
2019-03-20T18:47:44.258Z,6.47
2019-03-20T18:50:13.970Z,7.80
2019-03-20T18:52:42.918Z,7.73
2019-03-20T18:55:11.941Z,7.67
2019-03-20T18:57:40.920Z,8.97
2019-03-20T19:00:13.660Z,9.77
2019-03-20T19:02:42.666Z,9.57
2019-03-20T19:05:14.544Z,10.07
2019-03-20T19:07:43.713Z,9.93
2019-03-20T19:10:12.819Z,10.13
2019-03-20T19:12:41.759Z,11.27
2019-03-20T19:15:10.969Z,10.70
2019-03-20T19:17:41.006Z,11.63
2019-03-20T19:20:10.223Z,12.50
2019-03-20T19:22:39.273Z,12.58
2019-03-20T19:25:09.039Z,13.07
2019-03-20T19:27:38.023Z,12.93
2019-03-20T19:30:09.098Z,12.47
2019-03-20T19:32:37.913Z,12.97
2019-03-20T19:35:07.351Z,12.57
2019-03-20T19:37:36.285Z,13.43
2019-03-20T19:40:06.058Z,13.60
2019-03-20T19:42:35.057Z,14.80
2019-03-20T19:45:04.343Z,13.67
2019-03-20T19:47:34.322Z,13.47
2019-03-20T19:50:03.421Z,14.97
2019-03-20T19:52:32.230Z,13.63
2019-03-20T19:55:01.103Z,15.37
2019-03-20T19:57:29.972Z,15.37
2019-03-20T20:02:34.802Z,15.67
2019-03-20T20:05:15.064Z,16.37
2019-03-20T20:07:34.870Z,15.90
2019-03-20T20:10:04.328Z,15.83
2019-03-20T20:12:33.112Z,16.77
2019-03-20T20:15:02.032Z,17.30
2019-03-20T20:17:30.930Z,17.60
2019-03-20T20:19:59.814Z,17.57
2019-03-20T20:22:28.675Z,18.57
2019-03-20T20:24:57.531Z,16.33
2019-03-20T20:27:26.492Z,19.10
2019-03-20T20:29:55.376Z,17.43
2019-03-20T20:32:24.244Z,17.23
2019-03-20T20:34:53.184Z,18.17
2019-03-20T20:37:22.050Z,18.43
2019-03-20T20:39:50.908Z,18.50
2019-03-20T20:42:19.812Z,19.00
2019-03-20T20:44:48.759Z,17.47
2019-03-20T20:47:17.746Z,16.90
2019-03-20T20:49:46.627Z,17.73
2019-03-20T20:52:19.698Z,16.93
2019-03-20T20:54:46.006Z,18.67
2019-03-20T20:57:15.045Z,17.90
2019-03-20T20:59:44.414Z,17.53
2019-03-20T21:02:13.350Z,18.30
2019-03-20T21:04:42.339Z,18.47
2019-03-20T21:07:11.231Z,18.17
2019-03-20T21:09:41.637Z,18.40
2019-03-20T21:12:10.530Z,19.40
2019-03-20T21:14:39.424Z,20.67
2019-03-20T21:17:12.409Z,19.47
2019-03-20T21:19:41.931Z,20.90
2019-03-20T21:22:49.074Z,21.17
2019-03-20T21:25:20.051Z,20.33
2019-03-20T21:28:22.670Z,22.40
2019-03-20T21:31:14.481Z,21.40
2019-03-20T21:34:14.731Z,21.30
2019-03-20T21:37:23.779Z,21.73
2019-03-20T21:39:53.230Z,20.27
2019-03-20T21:43:15.752Z,22.27
2019-03-20T21:46:33.737Z,22.90
2019-03-20T21:49:03.293Z,23.00
2019-03-20T21:51:32.701Z,23.47
2019-03-20T21:54:40.965Z,23.07
2019-03-20T21:57:28.423Z,22.77
2019-03-20T22:00:58.130Z,24.03
2019-03-20T22:03:27.618Z,23.80
2019-03-20T22:06:34.011Z,23.60
2019-03-20T22:09:14.695Z,23.73
2019-03-20T22:12:19.544Z,23.13
2019-03-20T22:14:56.260Z,23.90
2019-03-20T22:18:15.367Z,24.07
2019-03-20T22:21:34.144Z,22.93
2019-03-20T22:24:36.528Z,22.03
2019-03-20T22:27:43.682Z,20.90
2019-03-20T22:30:13.203Z,21.00
2019-03-20T22:35:48.721Z,21.33
2019-03-20T22:39:03.412Z,21.47
2019-03-20T22:42:16.792Z,22.03
2019-03-20T22:45:32.940Z,21.40
2019-03-20T22:48:37.233Z,22.27
2019-03-20T22:51:41.870Z,21.13
2019-03-20T22:54:39.967Z,22.50
2019-03-20T22:57:15.099Z,22.67
2019-03-20T22:59:44.649Z,21.87
2019-03-20T23:02:24.791Z,21.20
2019-03-20T23:04:57.051Z,22.67
2019-03-20T23:07:26.496Z,22.43
2019-03-20T23:09:55.928Z,23.67
2019-03-20T23:12:25.373Z,24.67
2019-03-20T23:14:54.807Z,24.20
2019-03-20T23:17:24.401Z,24.70
2019-03-20T23:19:55.131Z,24.93
2019-03-20T23:22:24.601Z,23.80
2019-03-20T23:24:53.992Z,23.10
2019-03-20T23:27:29.034Z,23.63
2019-03-20T23:29:58.704Z,22.90
2019-03-20T23:32:28.351Z,23.30
2019-03-20T23:34:57.760Z,23.80
2019-03-20T23:37:38.214Z,24.70
2019-03-20T23:40:09.962Z,23.80
2019-03-20T23:42:39.393Z,22.43
2019-03-20T23:45:10.887Z,22.98
2019-03-20T23:48:06.537Z,23.07
2019-03-20T23:50:36.068Z,22.80
2019-03-20T23:53:05.617Z,22.53
2019-03-20T23:55:35.000Z,22.83
2019-03-20T23:58:04.487Z,22.10
